Map

Track Data

SID SEASON NUMBER BASIN SUBBASIN NAME ISO_TIME NATURE LAT LON WMO_WIND WMO_PRES WMO_AGENCY TRACK_TYPE DIST2LAND LANDFALL IFLAG USA_AGENCY USA_ATCF_ID USA_LAT USA_LON USA_RECORD USA_STATUS USA_WIND USA_PRES USA_SSHS USA_R34_NE USA_R34_SE USA_R34_SW USA_R34_NW USA_R50_NE USA_R50_SE USA_R50_SW USA_R50_NW USA_R64_NE USA_R64_SE USA_R64_SW USA_R64_NW USA_POCI USA_ROCI USA_RMW USA_EYE TOKYO_LAT TOKYO_LON TOKYO_GRADE TOKYO_WIND TOKYO_PRES TOKYO_R50_DIR TOKYO_R50_LONG TOKYO_R50_SHORT TOKYO_R30_DIR TOKYO_R30_LONG TOKYO_R30_SHORT TOKYO_LAND CMA_LAT CMA_LON CMA_CAT CMA_WIND CMA_PRES HKO_LAT HKO_LON HKO_CAT HKO_WIND HKO_PRES NEWDELHI_LAT NEWDELHI_LON NEWDELHI_GRADE NEWDELHI_WIND NEWDELHI_PRES NEWDELHI_CI NEWDELHI_DP NEWDELHI_POCI REUNION_LAT REUNION_LON REUNION_TYPE REUNION_WIND REUNION_PRES REUNION_TNUM REUNION_CI REUNION_RMW REUNION_R34_NE REUNION_R34_SE REUNION_R34_SW REUNION_R34_NW REUNION_R50_NE REUNION_R50_SE REUNION_R50_SW REUNION_R50_NW REUNION_R64_NE REUNION_R64_SE REUNION_R64_SW REUNION_R64_NW BOM_LAT BOM_LON BOM_TYPE BOM_WIND BOM_PRES BOM_TNUM BOM_CI BOM_RMW BOM_R34_NE BOM_R34_SE BOM_R34_SW BOM_R34_NW BOM_R50_NE BOM_R50_SE BOM_R50_SW BOM_R50_NW BOM_R64_NE BOM_R64_SE BOM_R64_SW BOM_R64_NW BOM_ROCI BOM_POCI BOM_EYE BOM_POS_METHOD BOM_PRES_METHOD NADI_LAT NADI_LON NADI_CAT NADI_WIND NADI_PRES WELLINGTON_LAT WELLINGTON_LON WELLINGTON_WIND WELLINGTON_PRES DS824_LAT DS824_LON DS824_STAGE DS824_WIND DS824_PRES TD9636_LAT TD9636_LON TD9636_STAGE TD9636_WIND TD9636_PRES TD9635_LAT TD9635_LON TD9635_WIND TD9635_PRES TD9635_ROCI NEUMANN_LAT NEUMANN_LON NEUMANN_CLASS NEUMANN_WIND NEUMANN_PRES MLC_LAT MLC_LON MLC_CLASS MLC_WIND MLC_PRES USA_GUST BOM_GUST BOM_GUST_PER REUNION_GUST REUNION_GUST_PER USA_SEAHGT USA_SEARAD_NE USA_SEARAD_SE USA_SEARAD_SW USA_SEARAD_NW STORM_SPEED STORM_DIR
1970230N11319 1970 91 NA NA DOROTHY 1970-08-17 12:00:00 TS 11.0000 -41.0000 25 hurdat_atl main 1361 1294 O_____________ hurdat_atl AL091970 11.0000 -41.0000 TD 25 -1 17 281
1970230N11319 1970 91 NA NA DOROTHY 1970-08-17 15:00:00 TS 11.1630 -41.8597 main 1292 1230 P_____________ AL091970 11.1630 -41.8597 TD 25 -1 17 280
1970230N11319 1970 91 NA NA DOROTHY 1970-08-17 18:00:00 TS 11.3000 -42.7000 25 hurdat_atl main 1230 1170 O_____________ hurdat_atl AL091970 11.3000 -42.7000 TD 25 -1 16 278
1970230N11319 1970 91 NA NA DOROTHY 1970-08-17 21:00:00 TS 11.3997 -43.5077 main 1170 1115 P_____________ AL091970 11.3997 -43.5077 TD 25 -1 16 277
1970230N11319 1970 91 NA NA DOROTHY 1970-08-18 00:00:00 TS 11.5000 -44.3000 25 hurdat_atl main 1115 1065 O_____________ hurdat_atl AL091970 11.5000 -44.3000 TD 25 -1 16 279
1970230N11319 1970 91 NA NA DOROTHY 1970-08-18 03:00:00 TS 11.6498 -45.1000 main 1065 1029 P_____________ AL091970 11.6498 -45.1000 TD 25 -1 16 281
1970230N11319 1970 91 NA NA DOROTHY 1970-08-18 06:00:00 TS 11.8000 -45.9000 25 hurdat_atl main 1029 990 O_____________ hurdat_atl AL091970 11.8000 -45.9000 TD 25 -1 16 279
1970230N11319 1970 91 NA NA DOROTHY 1970-08-18 09:00:00 TS 11.8923 -46.7003 main 990 945 P_____________ AL091970 11.8923 -46.7003 TD 27 -1 16 277
1970230N11319 1970 91 NA NA DOROTHY 1970-08-18 12:00:00 TS 12.0000 -47.5000 30 hurdat_atl main 945 915 O_____________ hurdat_atl AL091970 12.0000 -47.5000 TD 30 -1 16 281
1970230N11319 1970 91 NA NA DOROTHY 1970-08-18 15:00:00 TS 12.1848 -48.3000 main 915 893 P_____________ AL091970 12.1848 -48.3000 TD 30 -1 16 284
1970230N11319 1970 91 NA NA DOROTHY 1970-08-18 18:00:00 TS 12.4000 -49.1000 30 hurdat_atl main 893 877 O_____________ hurdat_atl AL091970 12.4000 -49.1000 TD 30 -1 16 285
1970230N11319 1970 91 NA NA DOROTHY 1970-08-18 21:00:00 TS 12.6073 -49.9075 main 877 863 P_____________ AL091970 12.6073 -49.9075 TD 32 -1 16 284
1970230N11319 1970 91 NA NA DOROTHY 1970-08-19 00:00:00 TS 12.8000 -50.7000 35 hurdat_atl main 863 842 O_____________ hurdat_atl AL091970 12.8000 -50.7000 TS 35 0 16 283
1970230N11319 1970 91 NA NA DOROTHY 1970-08-19 03:00:00 TS 12.9648 -51.4651 main 848 834 P_____________ AL091970 12.9648 -51.4651 TS 37 0 15 282
1970230N11319 1970 91 NA NA DOROTHY 1970-08-19 06:00:00 TS 13.1000 -52.2000 40 hurdat_atl main 835 827 O_____________ hurdat_atl AL091970 13.1000 -52.2000 TS 40 0 14 279
1970230N11319 1970 91 NA NA DOROTHY 1970-08-19 09:00:00 TS 13.1997 -52.9077 main 830 823 P_____________ AL091970 13.1997 -52.9077 TS 45 0 14 278
1970230N11319 1970 91 NA NA DOROTHY 1970-08-19 12:00:00 TS 13.3000 -53.6000 50 1000 hurdat_atl main 831 789 O_____________ hurdat_atl AL091970 13.3000 -53.6000 TS 50 1000 0 14 281
1970230N11319 1970 91 NA NA DOROTHY 1970-08-19 15:00:00 TS 13.4572 -54.2924 main 793 728 P_____________ AL091970 13.4572 -54.2924 TS 52 1002 0 14 282
1970230N11319 1970 91 NA NA DOROTHY 1970-08-19 18:00:00 TS 13.6000 -55.0000 55 1005 hurdat_atl main 728 667 O_____________ hurdat_atl AL091970 13.6000 -55.0000 TS 55 1005 0 14 278
1970230N11319 1970 91 NA NA DOROTHY 1970-08-19 21:00:00 TS 13.6648 -55.7427 main 667 593 P_____________ AL091970 13.6648 -55.7427 TS 50 1004 0 15 274
1970230N11319 1970 91 NA NA DOROTHY 1970-08-20 00:00:00 TS 13.7000 -56.5000 45 1003 hurdat_atl main 593 532 O_____________ hurdat_atl AL091970 13.7000 -56.5000 TS 45 1003 0 15 273
1970230N11319 1970 91 NA NA DOROTHY 1970-08-20 03:00:00 TS 13.7498 -57.2500 main 524 476 P_____________ AL091970 13.7498 -57.2500 TS 50 999 0 15 274
1970230N11319 1970 91 NA NA DOROTHY 1970-08-20 06:00:00 TS 13.8000 -58.0000 55 996 hurdat_atl main 476 427 O_____________ hurdat_atl AL091970 13.8000 -58.0000 TS 55 996 0 15 272
1970230N11319 1970 91 NA NA DOROTHY 1970-08-20 09:00:00 TS 13.8126 -58.7878 main 421 393 P_____________ AL091970 13.8126 -58.7878 TS 57 997 0 15 274
1970230N11319 1970 91 NA CS DOROTHY 1970-08-20 12:00:00 TS 13.9000 -59.5000 60 998 hurdat_atl main 393 389 O_____________ hurdat_atl AL091970 13.9000 -59.5000 TS 60 998 0 12 288
1970230N11319 1970 91 NA CS DOROTHY 1970-08-20 15:00:00 TS 14.1994 -59.9998 main 406 403 P_____________ AL091970 14.1994 -59.9998 TS 60 1000 0 11 302
1970230N11319 1970 91 NA CS DOROTHY 1970-08-20 18:00:00 TS 14.5000 -60.5000 60 1002 hurdat_atl main 428 426 O_____________ hurdat_atl AL091970 14.5000 -60.5000 TS 60 1002 0 12 288
1970230N11319 1970 91 NA CS DOROTHY 1970-08-20 21:00:00 TS 14.5801 -61.2129 main 436 436 P_____________ AL091970 14.5801 -61.2129 TS 57 0 15 274
1970230N11319 1970 91 NA CS DOROTHY 1970-08-21 00:00:00 TS 14.6000 -62.0000 55 hurdat_atl main 437 436 O_____________ hurdat_atl AL091970 14.6000 -62.0000 TS 55 0 15 274
1970230N11319 1970 91 NA CS DOROTHY 1970-08-21 03:00:00 TS 14.6924 -62.7650 main 447 434 P_____________ AL091970 14.6924 -62.7650 TS 52 0 15 278
1970230N11319 1970 91 NA CS DOROTHY 1970-08-21 06:00:00 TS 14.8000 -63.5000 50 hurdat_atl main 434 391 O_____________ hurdat_atl AL091970 14.8000 -63.5000 TS 50 0 14 279
1970230N11319 1970 91 NA CS DOROTHY 1970-08-21 09:00:00 TS 14.8997 -64.1726 main 386 352 P_____________ AL091970 14.8997 -64.1726 TS 47 0 13 279
1970230N11319 1970 91 NA CS DOROTHY 1970-08-21 12:00:00 TS 15.0000 -64.8000 45 1006 hurdat_atl main 352 324 O_____________ hurdat_atl AL091970 15.0000 -64.8000 TS 45 1006 0 12 280
1970230N11319 1970 91 NA CS DOROTHY 1970-08-21 15:00:00 TS 15.0998 -65.4076 main 324 302 P_____________ AL091970 15.0998 -65.4076 TS 45 1005 0 12 280
1970230N11319 1970 91 NA CS DOROTHY 1970-08-21 18:00:00 TS 15.2000 -66.0000 45 1005 hurdat_atl main 302 291 O_____________ hurdat_atl AL091970 15.2000 -66.0000 TS 45 1005 0 12 280
1970230N11319 1970 91 NA CS DOROTHY 1970-08-21 21:00:00 TS 15.2998 -66.6001 main 292 279 P_____________ AL091970 15.2998 -66.6001 TS 42 1006 0 12 280
1970230N11319 1970 91 NA CS DOROTHY 1970-08-22 00:00:00 TS 15.4000 -67.2000 40 1007 hurdat_atl main 279 270 O_____________ hurdat_atl AL091970 15.4000 -67.2000 TS 40 1007 0 12 280
1970230N11319 1970 91 NA CS DOROTHY 1970-08-22 03:00:00 TS 15.4998 -67.8001 main 276 274 P_____________ AL091970 15.4998 -67.8001 TS 40 0 12 280
1970230N11319 1970 91 NA CS DOROTHY 1970-08-22 06:00:00 TS 15.6000 -68.4000 40 hurdat_atl main 287 279 O_____________ hurdat_atl AL091970 15.6000 -68.4000 TS 40 0 12 280
1970230N11319 1970 91 NA CS DOROTHY 1970-08-22 09:00:00 TS 15.7073 -69.0000 main 280 273 P_____________ AL091970 15.7073 -69.0000 TS 37 0 12 280
1970230N11319 1970 91 NA CS DOROTHY 1970-08-22 12:00:00 TS 15.8000 -69.6000 35 hurdat_atl main 276 229 O_____________ hurdat_atl AL091970 15.8000 -69.6000 TS 35 0 12 277
1970230N11319 1970 91 NA CS DOROTHY 1970-08-22 15:00:00 TS 15.8573 -70.2001 main 229 200 P_____________ AL091970 15.8573 -70.2001 TS 32 -1 12 275
1970230N11319 1970 91 NA CS DOROTHY 1970-08-22 18:00:00 TS 15.9000 -70.8000 30 hurdat_atl main 200 190 O_____________ hurdat_atl AL091970 15.9000 -70.8000 TD 30 -1 12 275
1970230N11319 1970 91 NA CS DOROTHY 1970-08-22 21:00:00 TS 15.9498 -71.4000 main 190 179 P_____________ AL091970 15.9498 -71.4000 TD 30 -1 12 275
1970230N11319 1970 91 NA CS DOROTHY 1970-08-23 00:00:00 TS 16.0000 -72.0000 30 hurdat_atl main 190 190 O_____________ hurdat_atl AL091970 16.0000 -72.0000 TD 30 -1 12 275
1970230N11319 1970 91 NA CS DOROTHY 1970-08-23 03:00:00 TS 16.0498 -72.6000 main 219 210 P_____________ AL091970 16.0498 -72.6000 TD 30 -1 12 275
1970230N11319 1970 91 NA CS DOROTHY 1970-08-23 06:00:00 TS 16.1000 -73.2000 30 hurdat_atl main 221 212 O_____________ hurdat_atl AL091970 16.1000 -73.2000 TD 30 -1 12 275
1970230N11319 1970 91 NA CS DOROTHY 1970-08-23 09:00:00 TS 16.1503 -73.7999 main 201 201 P_____________ AL091970 16.1503 -73.7999 TD 30 -1 12 275
1970230N11319 1970 91 NA CS DOROTHY 1970-08-23 12:00:00 TS 16.2000 -74.4000 30 hurdat_atl main 208 O_____________ hurdat_atl AL091970 16.2000 -74.4000 TD 30 -1 12 275

About IBTrACS Database

This database is a web-friendly format of International Best Track Archive for Climate Stewardship (IBTrACS), a global best track data archive curated by NOAA dating back to 1842.

Updated: 2021-10-25